Kuala Belait, Brunei
Current Conditions -  °F | °C
As of 6:00 AM on Friday 24 Oct 2014 (Local Time) from WBGR Reporting Station
Broken Clouds Broken Clouds  
Wind Chill: 77°   Ceiling: 15000
Heat Index: 78°   Visibility: 6mi
Dew Point: 73°   Wind: 1mph
Humidity: 89%   Direction: 120°ESE
Pressure: 29.83"   Gusts: NA
Location:  4.59°N, 114.18°E
Report Text: WBGR 232200Z 12001KT 9999 FEW014 FEW015CB BKN150 25/23 Q1010
Loading
Personal Weather Stations






























Interactive Weather Map
Tropical Storm Tracking
New forecast layout! Learn more

10-Day Weather Forecast

Advertisements
Track Severe Weather on mobile